Time,TemperatureF,DewpointF,PressureIn,WindDirection,WindDirectionDegrees,WindSpeedMPH,WindSpeedGustMPH,Humidity,HourlyPrecipIn,Conditions,Clouds,dailyrainin,SoftwareType,DateUTC
2013-03-02 00:14:00,40.8,15.3,30.17,NW,315,2.2,-999.0,35,-99.99,,,0.00,Acu-Link.com,2013-03-02 07:14:00,
2013-03-02 00:29:00,41.2,15.6,30.18,South,180,0.0,-999.0,35,-99.99,,,0.00,Acu-Link.com,2013-03-02 07:29:00,
2013-03-02 00:45:00,39.6,16.1,30.18,NNE,22,0.0,-999.0,38,-99.99,,,0.00,Acu-Link.com,2013-03-02 07:45:00,
2013-03-02 01:00:00,39.4,15.9,30.18,West,270,3.2,-999.0,38,-99.99,,,0.00,Acu-Link.com,2013-03-02 08:00:00,
2013-03-02 01:15:00,39.0,16.2,30.18,NW,315,1.1,-999.0,39,-99.99,,,0.00,Acu-Link.com,2013-03-02 08:15:00,
2013-03-02 01:30:00,38.1,16.5,30.19,WNW,292,0.0,-999.0,41,-99.99,,,0.00,Acu-Link.com,2013-03-02 08:30:00,
2013-03-02 01:45:00,37.8,15.7,30.18,WNW,292,2.2,-999.0,40,-99.99,,,0.00,Acu-Link.com,2013-03-02 08:45:00,
2013-03-02 02:00:00,37.2,15.1,30.19,North,0,0.0,-999.0,40,-99.99,,,0.00,Acu-Link.com,2013-03-02 09:00:00,
2013-03-02 02:18:00,37.2,15.1,30.19,East,90,0.0,-999.0,40,-99.99,,,0.00,Acu-Link.com,2013-03-02 09:18:00,
2013-03-02 02:33:00,35.1,14.3,30.19,WNW,292,0.0,-999.0,42,-99.99,,,0.00,Acu-Link.com,2013-03-02 09:33:00,
2013-03-02 02:48:00,34.3,14.7,30.18,WNW,292,0.0,-999.0,44,-99.99,,,0.00,Acu-Link.com,2013-03-02 09:48:00,
2013-03-02 03:03:00,33.8,14.7,30.18,East,90,0.0,-999.0,45,-99.99,,,0.00,Acu-Link.com,2013-03-02 10:03:00,
2013-03-02 03:18:00,33.6,15.1,30.18,NNW,337,0.0,-999.0,46,-99.99,,,0.00,Acu-Link.com,2013-03-02 10:18:00,
2013-03-02 03:33:00,33.3,14.8,30.18,West,270,0.0,-999.0,46,-99.99,,,0.00,Acu-Link.com,2013-03-02 10:33:00,
2013-03-02 03:49:00,32.5,15.0,30.19,West,270,0.0,-999.0,48,-99.99,,,0.00,Acu-Link.com,2013-03-02 10:49:00,
2013-03-02 04:04:00,31.8,14.8,30.20,NW,315,0.0,-999.0,49,-99.99,,,0.00,Acu-Link.com,2013-03-02 11:04:00,
2013-03-02 04:19:00,31.1,15.1,30.20,SE,135,0.0,-999.0,51,-99.99,,,0.00,Acu-Link.com,2013-03-02 11:19:00,
2013-03-02 04:34:00,30.4,14.9,30.20,NNW,337,0.0,-999.0,52,-99.99,,,0.00,Acu-Link.com,2013-03-02 11:34:00,
2013-03-02 04:49:00,29.8,15.6,30.20,West,270,0.0,-999.0,55,-99.99,,,0.00,Acu-Link.com,2013-03-02 11:49:00,
2013-03-02 05:04:00,30.4,17.4,30.20,North,0,0.0,-999.0,58,-99.99,,,0.00,Acu-Link.com,2013-03-02 12:04:00,
2013-03-02 05:19:00,30.6,16.0,30.21,ESE,112,0.0,-999.0,54,-99.99,,,0.00,Acu-Link.com,2013-03-02 12:19:00,
2013-03-02 05:34:00,30.4,16.2,30.21,NNE,22,0.0,-999.0,55,-99.99,,,0.00,Acu-Link.com,2013-03-02 12:34:00,
2013-03-02 05:49:00,31.1,15.6,30.23,NW,315,1.1,-999.0,52,-99.99,,,0.00,Acu-Link.com,2013-03-02 12:49:00,
2013-03-02 06:05:00,32.0,15.9,30.22,NW,315,1.7,-999.0,51,-99.99,,,0.00,Acu-Link.com,2013-03-02 13:05:00,
2013-03-02 06:20:00,31.6,15.6,30.22,WSW,247,3.2,-999.0,51,-99.99,,,0.00,Acu-Link.com,2013-03-02 13:20:00,
2013-03-02 06:35:00,30.9,13.5,30.23,WNW,292,0.0,-999.0,48,-99.99,,,0.00,Acu-Link.com,2013-03-02 13:35:00,
2013-03-02 06:50:00,30.4,14.0,30.24,East,90,0.0,-999.0,50,-99.99,,,0.00,Acu-Link.com,2013-03-02 13:50:00,
2013-03-02 07:05:00,33.1,15.1,30.24,East,90,1.1,-999.0,47,-99.99,,,0.00,Acu-Link.com,2013-03-02 14:05:00,
2013-03-02 07:20:00,38.3,16.1,30.25,NNE,22,0.0,-999.0,40,-99.99,,,0.00,Acu-Link.com,2013-03-02 14:20:00,
2013-03-02 07:35:00,45.0,20.3,30.25,NE,45,0.0,-999.0,37,-99.99,,,0.00,Acu-Link.com,2013-03-02 14:35:00,
2013-03-02 07:50:00,42.8,15.7,30.26,WNW,292,1.1,-999.0,33,-99.99,,,0.00,Acu-Link.com,2013-03-02 14:50:00,
2013-03-02 08:05:00,42.3,15.3,30.26,North,0,0.0,-999.0,33,-99.99,,,0.00,Acu-Link.com,2013-03-02 15:05:00,
2013-03-02 08:21:00,45.3,16.5,30.26,NW,315,0.0,-999.0,31,-99.99,,,0.00,Acu-Link.com,2013-03-02 15:21:00,
2013-03-02 08:36:00,48.2,16.6,30.26,NW,315,2.2,-999.0,28,-99.99,,,0.00,Acu-Link.com,2013-03-02 15:36:00,
2013-03-02 08:51:00,51.4,17.7,30.25,NNE,22,1.1,-999.0,26,-99.99,,,0.00,Acu-Link.com,2013-03-02 15:51:00,
2013-03-02 09:06:00,51.6,16.0,30.25,ESE,112,0.0,-999.0,24,-99.99,,,0.00,Acu-Link.com,2013-03-02 16:06:00,
2013-03-02 09:21:00,54.3,16.3,30.26,SSE,157,2.7,-999.0,22,-99.99,,,0.00,Acu-Link.com,2013-03-02 16:21:00,
2013-03-02 09:36:00,54.9,16.8,30.25,NNE,22,1.7,-999.0,22,-99.99,,,0.00,Acu-Link.com,2013-03-02 16:36:00,
2013-03-02 09:52:00,58.6,16.5,30.25,NE,45,1.1,-999.0,19,-99.99,,,0.00,Acu-Link.com,2013-03-02 16:52:00,
2013-03-02 10:07:00,61.2,17.4,30.25,NE,45,2.7,-999.0,18,-99.99,,,0.00,Acu-Link.com,2013-03-02 17:07:00,
2013-03-02 10:22:00,61.2,17.4,30.24,South,180,1.7,-999.0,18,-99.99,,,0.00,Acu-Link.com,2013-03-02 17:22:00,
2013-03-02 10:37:00,62.8,17.4,30.25,NNW,337,4.2,-999.0,17,-99.99,,,0.00,Acu-Link.com,2013-03-02 17:37:00,
2013-03-02 10:52:00,65.1,17.8,30.24,WSW,247,3.2,-999.0,16,-99.99,,,0.00,Acu-Link.com,2013-03-02 17:52:00,
2013-03-02 11:07:00,64.4,17.2,30.23,WSW,247,2.7,-999.0,16,-99.99,,,0.00,Acu-Link.com,2013-03-02 18:07:00,
2013-03-02 11:22:00,66.4,17.4,30.22,SSE,157,4.7,-999.0,15,-99.99,,,0.00,Acu-Link.com,2013-03-02 18:22:00,
2013-03-02 11:37:00,67.5,16.6,30.22,East,90,2.7,-999.0,14,-99.99,,,0.00,Acu-Link.com,2013-03-02 18:37:00,
2013-03-02 11:52:00,68.4,19.0,30.21,SE,135,3.2,-999.0,15,-99.99,,,0.00,Acu-Link.com,2013-03-02 18:52:00,
2013-03-02 12:08:00,69.3,19.7,30.20,NE,45,4.2,-999.0,15,-99.99,,,0.00,Acu-Link.com,2013-03-02 19:08:00,
2013-03-02 12:23:00,69.8,18.5,30.18,ESE,112,2.7,-999.0,14,-99.99,,,0.00,Acu-Link.com,2013-03-02 19:23:00,
2013-03-02 12:38:00,70.0,18.6,30.17,NE,45,2.7,-999.0,14,-99.99,,,0.00,Acu-Link.com,2013-03-02 19:38:00,
2013-03-02 12:53:00,70.9,19.3,30.16,WNW,292,4.2,-999.0,14,-99.99,,,0.00,Acu-Link.com,2013-03-02 19:53:00,
2013-03-02 13:08:00,71.8,20.0,30.15,NW,315,4.7,-999.0,14,-99.99,,,0.00,Acu-Link.com,2013-03-02 20:08:00,
2013-03-02 13:23:00,73.0,21.0,30.14,SSE,157,6.3,-999.0,14,-99.99,,,0.00,Acu-Link.com,2013-03-02 20:23:00,
2013-03-02 13:38:00,72.0,21.8,30.13,ESE,112,3.2,-999.0,15,-99.99,,,0.00,Acu-Link.com,2013-03-02 20:38:00,
2013-03-02 13:53:00,72.3,22.1,30.12,South,180,2.2,-999.0,15,-99.99,,,0.00,Acu-Link.com,2013-03-02 20:53:00,
2013-03-02 14:08:00,72.0,20.2,30.12,WNW,292,0.0,-999.0,14,-99.99,,,0.00,Acu-Link.com,2013-03-02 21:08:00,
2013-03-02 14:23:00,73.4,21.3,30.11,NNE,22,2.7,-999.0,14,-99.99,,,0.00,Acu-Link.com,2013-03-02 21:23:00,
2013-03-02 14:39:00,72.0,20.2,30.10,NNW,337,2.7,-999.0,14,-99.99,,,0.00,Acu-Link.com,2013-03-02 21:39:00,
2013-03-02 14:54:00,74.5,20.4,30.10,ENE,67,2.7,-999.0,13,-99.99,,,0.00,Acu-Link.com,2013-03-02 21:54:00,
2013-03-02 15:09:00,72.7,20.8,30.09,NW,315,0.0,-999.0,14,-99.99,,,0.00,Acu-Link.com,2013-03-02 22:09:00,
2013-03-02 15:24:00,73.0,21.0,30.08,West,270,4.2,-999.0,14,-99.99,,,0.00,Acu-Link.com,2013-03-02 22:24:00,
2013-03-02 15:39:00,73.9,21.7,30.08,WSW,247,5.8,-999.0,14,-99.99,,,0.00,Acu-Link.com,2013-03-02 22:39:00,
2013-03-02 15:54:00,73.0,21.0,30.08,North,0,5.3,-999.0,14,-99.99,,,0.00,Acu-Link.com,2013-03-02 22:54:00,
2013-03-02 16:09:00,72.3,20.4,30.08,SSW,202,1.7,-999.0,14,-99.99,,,0.00,Acu-Link.com,2013-03-02 23:09:00,
2013-03-02 16:24:00,73.0,21.0,30.07,ESE,112,2.7,-999.0,14,-99.99,,,0.00,Acu-Link.com,2013-03-02 23:24:00,
2013-03-02 16:39:00,72.9,20.9,30.06,NW,315,0.0,-999.0,14,-99.99,,,0.00,Acu-Link.com,2013-03-02 23:39:00,
2013-03-02 16:55:00,77.5,20.9,30.06,West,270,0.0,-999.0,12,-99.99,,,0.00,Acu-Link.com,2013-03-02 23:55:00,
2013-03-02 17:10:00,79.5,22.4,30.06,NE,45,0.0,-999.0,12,-99.99,,,0.00,Acu-Link.com,2013-03-03 00:10:00,
2013-03-02 17:25:00,74.1,20.1,30.05,SE,135,0.0,-999.0,13,-99.99,,,0.00,Acu-Link.com,2013-03-03 00:25:00,
2013-03-02 17:40:00,69.3,19.7,30.05,South,180,2.7,-999.0,15,-99.99,,,0.00,Acu-Link.com,2013-03-03 00:40:00,
2013-03-02 17:55:00,67.3,19.6,30.05,South,180,3.2,-999.0,16,-99.99,,,0.00,Acu-Link.com,2013-03-03 00:55:00,
2013-03-02 18:10:00,65.1,19.2,30.04,SSW,202,2.2,-999.0,17,-99.99,,,0.00,Acu-Link.com,2013-03-03 01:10:00,
2013-03-02 18:25:00,63.0,18.8,30.03,South,180,0.0,-999.0,18,-99.99,,,0.00,Acu-Link.com,2013-03-03 01:25:00,
2013-03-02 18:40:00,60.8,19.5,30.04,SW,225,0.0,-999.0,20,-99.99,,,0.00,Acu-Link.com,2013-03-03 01:40:00,
2013-03-02 18:55:00,59.2,19.3,30.04,West,270,0.0,-999.0,21,-99.99,,,0.00,Acu-Link.com,2013-03-03 01:55:00,
2013-03-02 19:11:00,57.2,19.8,30.05,South,180,0.0,-999.0,23,-99.99,,,0.00,Acu-Link.com,2013-03-03 02:11:00,
2013-03-02 19:26:00,55.2,19.1,30.04,ENE,67,0.0,-999.0,24,-99.99,,,0.00,Acu-Link.com,2013-03-03 02:26:00,
2013-03-02 19:41:00,53.4,18.5,30.05,NNE,22,0.0,-999.0,25,-99.99,,,0.00,Acu-Link.com,2013-03-03 02:41:00,
2013-03-02 19:56:00,52.9,19.0,30.05,ENE,67,0.0,-999.0,26,-99.99,,,0.00,Acu-Link.com,2013-03-03 02:56:00,
2013-03-02 20:11:00,53.2,20.1,30.05,NE,45,0.0,-999.0,27,-99.99,,,0.00,Acu-Link.com,2013-03-03 03:11:00,
2013-03-02 20:26:00,52.2,19.2,30.05,NNE,22,0.0,-999.0,27,-99.99,,,0.00,Acu-Link.com,2013-03-03 03:26:00,
2013-03-02 20:41:00,51.8,19.7,30.06,NE,45,0.0,-999.0,28,-99.99,,,0.00,Acu-Link.com,2013-03-03 03:41:00,
2013-03-02 20:56:00,50.7,19.6,30.05,NNE,22,0.0,-999.0,29,-99.99,,,0.00,Acu-Link.com,2013-03-03 03:56:00,
2013-03-02 21:11:00,49.3,21.4,30.05,North,0,0.0,-999.0,33,-99.99,,,0.00,Acu-Link.com,2013-03-03 04:11:00,
2013-03-02 21:27:00,48.0,21.7,30.05,SSW,202,0.0,-999.0,35,-99.99,,,0.00,Acu-Link.com,2013-03-03 04:27:00,
2013-03-02 21:42:00,47.1,21.5,30.05,West,270,0.0,-999.0,36,-99.99,,,0.00,Acu-Link.com,2013-03-03 04:42:00,
2013-03-02 21:57:00,47.1,21.5,30.05,WNW,292,0.0,-999.0,36,-99.99,,,0.00,Acu-Link.com,2013-03-03 04:57:00,
2013-03-02 22:12:00,46.2,21.4,30.05,West,270,0.0,-999.0,37,-99.99,,,0.00,Acu-Link.com,2013-03-03 05:12:00,
2013-03-02 22:27:00,45.1,21.0,30.05,ENE,67,0.0,-999.0,38,-99.99,,,0.00,Acu-Link.com,2013-03-03 05:27:00,
2013-03-02 22:42:00,45.0,20.9,30.04,NE,45,2.2,-999.0,38,-99.99,,,0.00,Acu-Link.com,2013-03-03 05:42:00,
2013-03-02 22:57:00,44.8,22.0,30.04,SSW,202,2.7,-999.0,40,-99.99,,,0.00,Acu-Link.com,2013-03-03 05:57:00,
2013-03-02 23:12:00,43.5,21.9,30.03,West,270,1.1,-999.0,42,-99.99,,,0.00,Acu-Link.com,2013-03-03 06:12:00,
2013-03-02 23:27:00,43.3,22.3,30.03,ENE,67,0.0,-999.0,43,-99.99,,,0.00,Acu-Link.com,2013-03-03 06:27:00,
2013-03-02 23:43:00,42.3,22.0,30.03,NW,315,0.0,-999.0,44,-99.99,,,0.00,Acu-Link.com,2013-03-03 06:43:00,
2013-03-02 23:58:00,41.2,22.0,30.03,SW,225,2.2,-999.0,46,-99.99,,,0.00,Acu-Link.com,2013-03-03 06:58:00,